createdAt,value
2023-01-23T00:00:22.000Z,32.9
2023-01-23T00:01:32.000Z,32.9
2023-01-23T00:02:42.000Z,32.9
2023-01-23T00:03:52.826Z,32.9
2023-01-23T00:05:01.000Z,32.9
2023-01-23T00:06:12.000Z,32.9
2023-01-23T00:07:22.000Z,32.9
2023-01-23T00:08:32.306Z,32.9
2023-01-23T00:09:42.427Z,32.9
2023-01-23T00:10:52.000Z,32.9
2023-01-23T00:12:02.659Z,32.9
2023-01-23T00:13:12.000Z,32.9
2023-01-23T00:14:22.883Z,32.9
2023-01-23T00:15:33.000Z,32.9
2023-01-23T00:16:43.000Z,32.9
2023-01-23T00:17:53.234Z,32.9
2023-01-23T00:19:03.000Z,32.9
2023-01-23T00:20:12.488Z,32.9
2023-01-23T00:21:22.000Z,32.9
2023-01-23T00:22:32.000Z,32.9
2023-01-23T00:23:42.831Z,32.9
2023-01-23T00:24:52.000Z,32.9
2023-01-23T00:26:03.063Z,32.9
2023-01-23T00:27:13.000Z,33
2023-01-23T00:28:23.000Z,33
2023-01-23T00:29:33.418Z,32.9
2023-01-23T00:30:43.000Z,33
2023-01-23T00:31:53.000Z,33
2023-01-23T00:33:03.000Z,33
2023-01-23T00:34:13.000Z,33
2023-01-23T00:35:23.009Z,33
2023-01-23T00:36:33.000Z,33
2023-01-23T00:37:43.000Z,33
2023-01-23T00:38:53.000Z,33
2023-01-23T00:40:03.000Z,33
2023-01-23T00:41:13.588Z,33
2023-01-23T00:42:23.000Z,33
2023-01-23T00:43:33.820Z,33
2023-01-23T00:44:43.000Z,33
2023-01-23T00:45:54.000Z,33
2023-01-23T00:47:04.000Z,33
2023-01-23T00:48:14.000Z,33
2023-01-23T00:49:24.000Z,33
2023-01-23T00:50:33.539Z,33
2023-01-23T00:51:43.000Z,33
2023-01-23T00:52:53.777Z,33
2023-01-23T00:54:03.896Z,33
2023-01-23T00:55:14.005Z,33
2023-01-23T00:56:24.000Z,33
2023-01-23T00:57:34.000Z,33
2023-01-23T00:58:44.000Z,33
2023-01-23T00:59:54.463Z,33
2023-01-23T01:01:04.000Z,33
2023-01-23T01:02:14.000Z,33
2023-01-23T01:03:24.000Z,33
2023-01-23T01:04:34.000Z,33
2023-01-23T01:05:44.000Z,33
2023-01-23T01:06:54.176Z,33
2023-01-23T01:08:04.000Z,33.1
2023-01-23T01:09:14.411Z,33.1
2023-01-23T01:10:24.000Z,33
2023-01-23T01:11:34.000Z,33
2023-01-23T01:12:44.756Z,33.1
2023-01-23T01:13:54.876Z,33.1
2023-01-23T01:15:04.000Z,33.1
2023-01-23T01:16:15.108Z,33.1
2023-01-23T01:17:25.233Z,33.1
2023-01-23T01:18:35.338Z,33.1
2023-01-23T01:19:45.000Z,33.1
2023-01-23T01:20:54.590Z,33.1
2023-01-23T01:22:04.000Z,33.1
2023-01-23T01:23:14.821Z,33.1
2023-01-23T01:24:24.938Z,33.1
2023-01-23T01:25:35.000Z,33.1
2023-01-23T01:26:45.000Z,33.1
2023-01-23T01:27:55.000Z,33.1
2023-01-23T01:29:05.000Z,33.1
2023-01-23T01:30:15.000Z,33.1
2023-01-23T01:31:25.000Z,33.1
2023-01-23T01:32:35.753Z,33.1
2023-01-23T01:33:45.000Z,33.1
2023-01-23T01:34:55.986Z,33.1
2023-01-23T01:36:05.000Z,33.1
2023-01-23T01:37:15.000Z,33.1
2023-01-23T01:38:25.347Z,33.1
2023-01-23T01:39:35.461Z,33.1
2023-01-23T01:40:45.000Z,33.1
2023-01-23T01:41:55.000Z,33.1
2023-01-23T01:43:05.811Z,33.1
2023-01-23T01:44:15.000Z,33.1
2023-01-23T01:45:26.000Z,33.1
2023-01-23T01:46:36.000Z,33.1
2023-01-23T01:47:46.284Z,33.1
2023-01-23T01:48:56.392Z,33.1
2023-01-23T01:50:06.000Z,33.1
2023-01-23T01:51:15.000Z,33.1
2023-01-23T01:52:25.000Z,33.1
2023-01-23T01:53:35.877Z,33.1
2023-01-23T01:54:45.992Z,33.2
2023-01-23T01:55:56.000Z,33.2
2023-01-23T01:57:06.226Z,33.2
2023-01-23T01:58:16.000Z,33.1
2023-01-23T01:59:26.000Z,33.2
2023-01-23T02:00:36.000Z,33.2
2023-01-23T02:01:46.685Z,33.2
2023-01-23T02:02:56.000Z,33.2
2023-01-23T02:04:06.000Z,33.2
2023-01-23T02:05:17.000Z,33.2
2023-01-23T02:06:26.165Z,33.2
2023-01-23T02:07:36.000Z,33.2
2023-01-23T02:08:46.000Z,33.2
2023-01-23T02:09:56.000Z,33.2
2023-01-23T02:11:06.000Z,33.2
2023-01-23T02:12:16.755Z,33.2
2023-01-23T02:13:26.863Z,33.2
2023-01-23T02:14:36.987Z,33.2
2023-01-23T02:15:47.000Z,33.2
2023-01-23T02:16:57.211Z,33.2
2023-01-23T02:18:07.000Z,33.2
2023-01-23T02:19:17.000Z,33.2
2023-01-23T02:20:27.566Z,33.2
2023-01-23T02:21:36.699Z,33.2
2023-01-23T02:22:46.810Z,33.2
2023-01-23T02:23:56.000Z,33.2
2023-01-23T02:25:07.000Z,33.2
2023-01-23T02:26:17.165Z,33.2
2023-01-23T02:27:27.000Z,33.2
2023-01-23T02:28:37.000Z,33.2
2023-01-23T02:29:47.000Z,33.3
2023-01-23T02:30:57.000Z,33.3
2023-01-23T02:32:07.738Z,33.3
2023-01-23T02:33:17.000Z,33.3
2023-01-23T02:34:27.000Z,33.3
2023-01-23T02:35:38.000Z,33.3
2023-01-23T02:36:47.000Z,33.3
2023-01-23T02:37:57.000Z,33.3
2023-01-23T02:39:07.461Z,33.3
2023-01-23T02:40:17.567Z,33.3
2023-01-23T02:41:27.691Z,33.3
2023-01-23T02:42:37.000Z,33.3
2023-01-23T02:44:58.000Z,33.3
2023-01-23T02:46:08.148Z,33.3
2023-01-23T02:47:18.000Z,33.3
2023-01-23T02:48:28.000Z,33.3
2023-01-23T02:49:38.496Z,33.3
2023-01-23T02:50:48.000Z,33.3
2023-01-23T02:51:57.750Z,33.3
2023-01-23T02:53:07.000Z,33.3
2023-01-23T02:54:17.978Z,33.3
2023-01-23T02:55:28.110Z,33.3
2023-01-23T02:56:38.212Z,33.3
2023-01-23T02:57:48.339Z,33.3
2023-01-23T02:58:58.443Z,33.3
2023-01-23T03:00:08.000Z,33.3
2023-01-23T03:01:18.000Z,33.3
2023-01-23T03:02:28.000Z,33.3
2023-01-23T03:03:38.909Z,33.3
2023-01-23T03:04:49.000Z,33.3
2023-01-23T03:05:59.000Z,33.3
2023-01-23T03:07:08.000Z,33.3
2023-01-23T03:08:18.000Z,33.3
2023-01-23T03:09:28.000Z,33.3
2023-01-23T03:10:38.000Z,33.3
2023-01-23T03:11:48.000Z,33.3
2023-01-23T03:12:58.000Z,33.4
2023-01-23T03:14:08.000Z,33.4
2023-01-23T03:15:19.000Z,33.4
2023-01-23T03:16:29.000Z,33.3
2023-01-23T03:17:39.000Z,33.4
2023-01-23T03:18:49.000Z,33.4
2023-01-23T03:19:59.566Z,33.4
2023-01-23T03:21:09.667Z,33.4
2023-01-23T03:22:18.000Z,33.4
2023-01-23T03:23:28.000Z,33.4
2023-01-23T03:24:39.000Z,33.4
2023-01-23T03:25:49.000Z,33.4
2023-01-23T03:26:59.269Z,33.4
2023-01-23T03:28:09.376Z,33.4
2023-01-23T03:29:19.000Z,33.4
2023-01-23T03:30:29.614Z,33.4
2023-01-23T03:31:39.728Z,33.4
2023-01-23T03:32:49.000Z,33.4
2023-01-23T03:33:59.962Z,33.4
2023-01-23T03:35:10.073Z,33.4
2023-01-23T03:36:20.195Z,33.4
2023-01-23T03:37:29.326Z,33.4
2023-01-23T03:38:39.000Z,33.4
2023-01-23T03:39:49.000Z,33.4
2023-01-23T03:40:59.674Z,33.4
2023-01-23T03:42:09.000Z,33.4
2023-01-23T03:43:19.000Z,33.4
2023-01-23T03:44:29.000Z,33.4
2023-01-23T03:45:39.000Z,33.4
2023-01-23T03:46:49.275Z,33.4
2023-01-23T03:47:59.000Z,33.4
2023-01-23T03:49:09.000Z,33.4
2023-01-23T03:50:19.625Z,33.4
2023-01-23T03:51:29.747Z,33.4
2023-01-23T03:52:39.000Z,33.4
2023-01-23T03:53:49.977Z,33.5
2023-01-23T03:55:00.085Z,33.5
2023-01-23T03:56:10.201Z,33.5
2023-01-23T03:57:20.000Z,33.5
2023-01-23T03:58:30.441Z,33.5
2023-01-23T03:59:39.000Z,33.5
2023-01-23T04:00:49.000Z,33.5
2023-01-23T04:01:59.815Z,33.5
2023-01-23T04:03:09.000Z,33.5
2023-01-23T04:04:20.031Z,33.5
2023-01-23T04:05:30.000Z,33.5
2023-01-23T04:06:40.000Z,33.5
2023-01-23T04:07:50.382Z,33.6
2023-01-23T04:09:00.000Z,33.5
2023-01-23T04:10:10.612Z,33.5
2023-01-23T04:11:20.000Z,33.5
2023-01-23T04:12:30.844Z,33.5
2023-01-23T04:13:40.971Z,33.4
2023-01-23T04:14:50.000Z,33.4
2023-01-23T04:16:00.000Z,33.3
2023-01-23T04:17:10.000Z,33.3
2023-01-23T04:18:20.000Z,33.3
2023-01-23T04:19:30.562Z,33.2
2023-01-23T04:20:40.000Z,33.2
2023-01-23T04:21:50.000Z,33.1
2023-01-23T04:23:00.000Z,33.1
2023-01-23T04:24:11.000Z,33
2023-01-23T04:25:21.000Z,33
2023-01-23T04:26:31.000Z,33
2023-01-23T04:27:41.000Z,32.8
2023-01-23T04:28:51.492Z,32.8
2023-01-23T04:30:00.621Z,32.8
2023-01-23T04:31:10.738Z,32.8
2023-01-23T04:32:20.000Z,32.7
2023-01-23T04:33:30.000Z,32.6
2023-01-23T04:34:41.000Z,32.6
2023-01-23T04:35:51.000Z,32.5
2023-01-23T04:37:01.000Z,32.5
2023-01-23T04:38:11.440Z,32.5
2023-01-23T04:39:21.000Z,32.4
2023-01-23T04:40:31.000Z,32.3
2023-01-23T04:41:41.000Z,32.3
2023-01-23T04:42:51.000Z,32.2
2023-01-23T04:44:02.012Z,32.2
2023-01-23T04:45:11.155Z,32.1
2023-01-23T04:46:21.000Z,32.1
2023-01-23T04:47:31.376Z,32.1
2023-01-23T04:48:41.000Z,32
2023-01-23T04:49:51.000Z,32
2023-01-23T04:51:01.000Z,31.9
2023-01-23T04:52:11.840Z,31.9
2023-01-23T04:53:21.000Z,31.9
2023-01-23T04:54:32.000Z,31.8
2023-01-23T04:55:42.000Z,31.7
2023-01-23T04:56:52.000Z,31.7
2023-01-23T04:58:02.000Z,31.7
2023-01-23T04:59:12.000Z,31.6
2023-01-23T05:00:21.667Z,31.6
2023-01-23T05:01:31.000Z,31.6
2023-01-23T05:02:41.000Z,31.5
2023-01-23T05:03:52.000Z,31.4
2023-01-23T05:05:02.140Z,31.4
2023-01-23T05:06:12.000Z,31.3
2023-01-23T05:07:22.000Z,31.3
2023-01-23T05:08:32.000Z,31.3
2023-01-23T05:09:42.000Z,31.3
2023-01-23T05:10:52.000Z,31.3
2023-01-23T05:12:02.829Z,31.2
2023-01-23T05:13:12.000Z,31.2
2023-01-23T05:14:23.000Z,31.2
2023-01-23T05:15:32.000Z,31.2
2023-01-23T05:16:42.000Z,31.2
2023-01-23T05:17:52.000Z,31.1
2023-01-23T05:19:02.000Z,31.1
2023-01-23T05:20:12.651Z,31.1
2023-01-23T05:21:22.000Z,31.1
2023-01-23T05:22:32.883Z,31.1
2023-01-23T05:23:43.004Z,31.1
2023-01-23T05:24:53.000Z,31
2023-01-23T05:26:03.233Z,31
2023-01-23T05:27:13.000Z,31
2023-01-23T05:28:23.000Z,31
2023-01-23T05:29:33.000Z,31
2023-01-23T05:30:42.710Z,31
2023-01-23T05:31:52.000Z,31
2023-01-23T05:33:02.000Z,30.9
2023-01-23T05:34:13.061Z,30.9
2023-01-23T05:35:23.000Z,30.9
2023-01-23T05:36:33.288Z,30.9
2023-01-23T05:37:43.000Z,30.9
2023-01-23T05:38:53.000Z,30.9
2023-01-23T05:40:03.654Z,30.9
2023-01-23T05:41:13.000Z,30.8
2023-01-23T05:42:23.874Z,30.9
2023-01-23T05:43:33.000Z,30.8
2023-01-23T05:44:44.000Z,30.8
2023-01-23T05:45:53.232Z,30.8
2023-01-23T05:47:03.000Z,30.8
2023-01-23T05:48:13.473Z,30.8
2023-01-23T05:49:23.000Z,30.8
2023-01-23T05:50:33.000Z,30.8
2023-01-23T05:51:43.000Z,30.8
2023-01-23T05:52:53.000Z,30.8
2023-01-23T05:54:04.000Z,30.8
2023-01-23T05:55:14.000Z,30.8
2023-01-23T05:56:24.000Z,30.8
2023-01-23T05:57:34.000Z,30.8
2023-01-23T05:58:44.000Z,30.8
2023-01-23T05:59:54.000Z,30.8
2023-01-23T06:01:03.000Z,30.8
2023-01-23T06:02:13.000Z,30.7
2023-01-23T06:03:23.987Z,30.7
2023-01-23T06:04:34.000Z,30.7
2023-01-23T06:05:44.000Z,30.7
2023-01-23T06:06:54.000Z,30.7
2023-01-23T06:08:04.000Z,30.8
2023-01-23T06:09:14.565Z,30.8
2023-01-23T06:10:24.000Z,30.8
2023-01-23T06:11:34.000Z,30.8
2023-01-23T06:12:44.000Z,30.8
2023-01-23T06:13:55.000Z,30.8
2023-01-23T06:15:05.150Z,30.9
2023-01-23T06:16:14.000Z,30.9
2023-01-23T06:17:24.000Z,30.9
2023-01-23T06:18:34.000Z,30.9
2023-01-23T06:19:44.000Z,30.9
2023-01-23T06:20:54.000Z,30.9
2023-01-23T06:22:04.859Z,30.9
2023-01-23T06:23:14.000Z,31
2023-01-23T06:24:25.086Z,31
2023-01-23T06:25:35.000Z,31
2023-01-23T06:26:45.000Z,31
2023-01-23T06:27:55.443Z,31
2023-01-23T06:29:05.000Z,31
2023-01-23T06:30:15.665Z,31
2023-01-23T06:31:24.000Z,31
2023-01-23T06:33:45.000Z,31
2023-01-23T06:34:55.150Z,31
2023-01-23T06:36:05.000Z,31
2023-01-23T06:37:15.382Z,31
2023-01-23T06:38:25.495Z,31
2023-01-23T06:39:35.000Z,30.9
2023-01-23T06:40:45.000Z,31.1
2023-01-23T06:41:55.000Z,31.1
2023-01-23T06:43:05.964Z,31.1
2023-01-23T06:44:16.071Z,31.1
2023-01-23T06:45:26.000Z,30.9
2023-01-23T06:46:35.000Z,31.1
2023-01-23T06:47:45.000Z,31.1
2023-01-23T06:48:55.000Z,30.9
2023-01-23T06:50:05.000Z,31.1
2023-01-23T06:51:15.000Z,31.1
2023-01-23T06:52:25.907Z,31.1
2023-01-23T06:53:36.022Z,31.1
2023-01-23T06:54:46.000Z,31.1
2023-01-23T06:55:56.000Z,31.1
2023-01-23T06:57:06.000Z,31.1
2023-01-23T06:58:16.000Z,31.1
2023-01-23T06:59:26.000Z,31.1
2023-01-23T07:00:36.000Z,31.1
2023-01-23T07:01:45.000Z,31.1
2023-01-23T07:02:55.000Z,31.1
2023-01-23T07:04:06.000Z,31.1
2023-01-23T07:05:16.193Z,31.1
2023-01-23T07:06:26.000Z,31.1
2023-01-23T07:07:36.000Z,31
2023-01-23T07:08:46.000Z,31
2023-01-23T07:09:56.000Z,31
2023-01-23T07:11:06.000Z,31
2023-01-23T07:12:16.000Z,31
2023-01-23T07:13:27.012Z,31
2023-01-23T07:14:37.117Z,31
2023-01-23T07:15:47.237Z,31
2023-01-23T07:16:56.000Z,31
2023-01-23T07:18:06.000Z,31
2023-01-23T07:19:16.603Z,31
2023-01-23T07:20:26.000Z,31
2023-01-23T07:21:36.000Z,31
2023-01-23T07:22:46.000Z,31
2023-01-23T07:23:57.000Z,31
2023-01-23T07:25:07.178Z,31
2023-01-23T07:26:17.293Z,31
2023-01-23T07:27:27.408Z,31
2023-01-23T07:28:37.531Z,31
2023-01-23T07:29:47.000Z,31
2023-01-23T07:30:57.000Z,31
2023-01-23T07:32:06.000Z,31
2023-01-23T07:33:17.000Z,31
2023-01-23T07:34:27.000Z,31
2023-01-23T07:35:37.240Z,31
2023-01-23T07:36:47.000Z,31
2023-01-23T07:37:57.477Z,31
2023-01-23T07:39:06.610Z,31
2023-01-23T07:40:16.000Z,31
2023-01-23T07:41:26.836Z,31
2023-01-23T07:42:36.000Z,31
2023-01-23T07:43:47.076Z,31
2023-01-23T07:44:57.000Z,31
2023-01-23T07:46:07.000Z,31
2023-01-23T07:47:17.000Z,31
2023-01-23T07:48:27.545Z,31
2023-01-23T07:49:37.000Z,31
2023-01-23T07:50:47.000Z,31
2023-01-23T07:51:57.000Z,31
2023-01-23T07:53:07.996Z,31
2023-01-23T07:54:17.136Z,31
2023-01-23T07:55:27.249Z,31
2023-01-23T07:56:37.000Z,31
2023-01-23T07:57:47.479Z,31
2023-01-23T07:58:57.000Z,31
2023-01-23T08:00:07.000Z,31
2023-01-23T08:01:17.000Z,31
2023-01-23T08:02:27.000Z,31
2023-01-23T08:03:38.069Z,31
2023-01-23T08:04:48.000Z,31
2023-01-23T08:05:58.000Z,31
2023-01-23T08:07:08.000Z,31
2023-01-23T08:08:18.000Z,31
2023-01-23T08:09:27.000Z,31
2023-01-23T08:10:37.000Z,31
2023-01-23T08:11:47.000Z,31
2023-01-23T08:12:58.000Z,31
2023-01-23T08:14:08.117Z,31
2023-01-23T08:15:18.235Z,31
2023-01-23T08:16:28.357Z,31
2023-01-23T08:17:38.465Z,31
2023-01-23T08:18:48.590Z,31
2023-01-23T08:19:58.705Z,31
2023-01-23T08:21:08.000Z,31
2023-01-23T08:22:18.000Z,31
2023-01-23T08:23:29.000Z,31
2023-01-23T08:24:38.000Z,31
2023-01-23T08:25:48.000Z,31
2023-01-23T08:26:58.000Z,31
2023-01-23T08:28:08.525Z,31
2023-01-23T08:29:18.000Z,31
2023-01-23T08:30:28.752Z,31
2023-01-23T08:31:38.000Z,30.9
2023-01-23T08:32:48.000Z,31
2023-01-23T08:33:59.000Z,30.9
2023-01-23T08:35:09.000Z,31
2023-01-23T08:36:19.000Z,31
2023-01-23T08:37:29.000Z,30.9
2023-01-23T08:38:39.567Z,30.9
2023-01-23T08:39:48.000Z,30.9
2023-01-23T08:40:58.000Z,30.9
2023-01-23T08:42:08.000Z,30.9
2023-01-23T08:43:19.048Z,30.9
2023-01-23T08:44:29.000Z,30.9
2023-01-23T08:45:39.000Z,30.9
2023-01-23T08:46:49.391Z,30.9
2023-01-23T08:47:59.515Z,30.9
2023-01-23T08:49:09.000Z,30.9
2023-01-23T08:50:19.755Z,30.9
2023-01-23T08:51:29.000Z,30.9
2023-01-23T08:52:39.000Z,30.9
2023-01-23T08:53:50.089Z,30.9
2023-01-23T08:54:59.000Z,30.9
2023-01-23T08:56:09.339Z,30.9
2023-01-23T08:57:19.456Z,30.9
2023-01-23T08:58:29.000Z,30.9
2023-01-23T08:59:39.000Z,30.9
2023-01-23T09:00:49.000Z,30.9
2023-01-23T09:01:59.000Z,30.9
2023-01-23T09:03:10.000Z,30.9
2023-01-23T09:04:20.000Z,30.9
2023-01-23T09:05:30.268Z,30.9
2023-01-23T09:06:40.000Z,30.9
2023-01-23T09:07:50.496Z,30.9
2023-01-23T09:09:00.000Z,30.9
2023-01-23T09:10:09.000Z,30.9
2023-01-23T09:11:19.000Z,30.9
2023-01-23T09:12:29.000Z,30.9
2023-01-23T09:13:40.095Z,30.9
2023-01-23T09:14:50.209Z,30.9
2023-01-23T09:16:00.324Z,30.9
2023-01-23T09:17:10.000Z,30.9
2023-01-23T09:18:20.000Z,30.9
2023-01-23T09:19:30.676Z,30.8
2023-01-23T09:20:40.788Z,30.9
2023-01-23T09:21:50.000Z,30.9
2023-01-23T09:23:01.000Z,30.9
2023-01-23T09:24:11.000Z,30.8
2023-01-23T09:25:20.000Z,30.9
2023-01-23T09:26:30.000Z,30.8
2023-01-23T09:27:40.000Z,30.8
2023-01-23T09:28:50.615Z,30.8
2023-01-23T09:30:00.000Z,30.8
2023-01-23T09:31:10.000Z,30.8
2023-01-23T09:32:20.000Z,30.8
2023-01-23T09:33:31.086Z,30.8
2023-01-23T09:34:41.201Z,30.8
2023-01-23T09:35:51.000Z,30.8
2023-01-23T09:37:01.430Z,30.8
2023-01-23T09:38:11.548Z,30.8
2023-01-23T09:39:21.000Z,30.8
2023-01-23T09:40:30.000Z,30.8
2023-01-23T09:41:40.000Z,30.8
2023-01-23T09:42:51.000Z,30.8
2023-01-23T09:44:01.000Z,30.8
2023-01-23T09:45:11.000Z,30.8
2023-01-23T09:46:21.000Z,30.8
2023-01-23T09:47:31.000Z,30.8
2023-01-23T09:48:41.000Z,30.8
2023-01-23T09:49:51.000Z,30.8
2023-01-23T09:51:01.843Z,30.8
2023-01-23T09:52:11.000Z,30.8
2023-01-23T09:53:22.000Z,30.8
2023-01-23T09:54:32.000Z,30.8
2023-01-23T09:55:41.327Z,30.8
2023-01-23T09:56:51.000Z,30.7
2023-01-23T09:58:01.000Z,30.8
2023-01-23T09:59:11.000Z,30.8
2023-01-23T10:00:21.000Z,30.8
2023-01-23T10:01:31.000Z,30.8
2023-01-23T10:02:42.000Z,30.7
2023-01-23T10:03:52.126Z,30.7
2023-01-23T10:05:02.242Z,30.7
2023-01-23T10:06:12.358Z,30.7
2023-01-23T10:08:32.589Z,30.7
2023-01-23T10:09:42.000Z,30.7
2023-01-23T10:10:51.847Z,30.7
2023-01-23T10:12:01.000Z,30.7
2023-01-23T10:13:12.000Z,30.7
2023-01-23T10:14:22.000Z,30.7
2023-01-23T10:15:32.307Z,30.7
2023-01-23T10:16:42.000Z,30.7
2023-01-23T10:17:52.000Z,30.7
2023-01-23T10:19:02.656Z,30.7
2023-01-23T10:20:12.768Z,30.7
2023-01-23T10:21:22.000Z,30.7
2023-01-23T10:22:33.013Z,30.7
2023-01-23T10:23:43.000Z,30.7
2023-01-23T10:24:53.236Z,30.7
2023-01-23T10:26:02.000Z,30.7
2023-01-23T10:27:12.488Z,30.7
2023-01-23T10:28:22.609Z,30.7
2023-01-23T10:29:32.000Z,30.6
2023-01-23T10:30:42.000Z,30.6
2023-01-23T10:31:52.000Z,30.6
2023-01-23T10:33:03.072Z,30.6
2023-01-23T10:34:13.000Z,30.6
2023-01-23T10:35:23.000Z,30.6
2023-01-23T10:36:33.416Z,30.6
2023-01-23T10:37:43.529Z,30.6
2023-01-23T10:38:53.654Z,30.6
2023-01-23T10:40:03.000Z,30.6
2023-01-23T10:41:12.000Z,30.6
2023-01-23T10:42:23.000Z,30.6
2023-01-23T10:43:33.000Z,30.6
2023-01-23T10:44:43.000Z,30.6
2023-01-23T10:45:53.356Z,30.6
2023-01-23T10:47:03.470Z,30.6
2023-01-23T10:48:13.588Z,30.6
2023-01-23T10:49:23.704Z,30.6
2023-01-23T10:50:33.000Z,30.6
2023-01-23T10:51:43.937Z,30.6
2023-01-23T10:52:54.058Z,30.6
2023-01-23T10:54:04.000Z,30.6
2023-01-23T10:55:14.286Z,30.6
2023-01-23T10:56:23.000Z,30.5
2023-01-23T10:57:33.000Z,30.5
2023-01-23T10:58:43.000Z,30.5
2023-01-23T10:59:53.000Z,30.5
2023-01-23T11:01:03.000Z,30.5
2023-01-23T11:02:13.994Z,30.5
2023-01-23T11:03:24.000Z,30.5
2023-01-23T11:04:34.227Z,30.5
2023-01-23T11:05:44.346Z,30.5
2023-01-23T11:06:54.000Z,30.5
2023-01-23T11:08:04.584Z,30.5
2023-01-23T11:09:14.701Z,30.5
2023-01-23T11:10:24.000Z,30.5
2023-01-23T11:11:33.940Z,30.5
2023-01-23T11:12:44.000Z,30.5
2023-01-23T11:13:54.000Z,30.5
2023-01-23T11:15:04.311Z,30.5
2023-01-23T11:16:14.000Z,30.5
2023-01-23T11:17:24.521Z,30.5
2023-01-23T11:18:34.000Z,30.5
2023-01-23T11:19:44.754Z,30.5
2023-01-23T11:20:54.869Z,30.5
2023-01-23T11:22:04.000Z,30.5
2023-01-23T11:23:15.000Z,30.5
2023-01-23T11:24:25.000Z,30.5
2023-01-23T11:25:35.000Z,30.5
2023-01-23T11:26:44.000Z,30.5
2023-01-23T11:27:54.000Z,30.5
2023-01-23T11:29:04.000Z,30.5
2023-01-23T11:30:14.814Z,30.5
2023-01-23T11:31:24.000Z,30.5
2023-01-23T11:32:35.051Z,30.5
2023-01-23T11:33:44.184Z,30.5
2023-01-23T11:34:54.000Z,30.5
2023-01-23T11:36:04.000Z,30.5
2023-01-23T11:37:14.000Z,30.4
2023-01-23T11:38:24.000Z,30.5
2023-01-23T11:39:34.000Z,30.4
2023-01-23T11:40:44.000Z,30.4
2023-01-23T11:41:55.000Z,30.4
2023-01-23T11:43:05.000Z,30.4
2023-01-23T11:44:15.237Z,30.4
2023-01-23T11:45:25.000Z,30.4
2023-01-23T11:46:35.000Z,30.4
2023-01-23T11:47:45.585Z,30.4
2023-01-23T11:48:54.708Z,30.4
2023-01-23T11:50:04.827Z,30.4
2023-01-23T11:51:14.000Z,30.4
2023-01-23T11:52:25.000Z,30.4
2023-01-23T11:53:35.000Z,30.4
2023-01-23T11:54:45.000Z,30.4
2023-01-23T11:55:55.000Z,30.4
2023-01-23T11:57:05.000Z,30.4
2023-01-23T11:58:15.000Z,30.4
2023-01-23T11:59:25.000Z,30.4
2023-01-23T12:00:35.000Z,30.4
2023-01-23T12:01:45.000Z,30.4
2023-01-23T12:02:56.103Z,30.4
2023-01-23T12:04:05.000Z,30.4
2023-01-23T12:05:15.000Z,30.4
2023-01-23T12:06:25.000Z,30.4
2023-01-23T12:07:35.000Z,30.4
2023-01-23T12:08:45.000Z,30.4
2023-01-23T12:09:55.000Z,30.4
2023-01-23T12:11:05.935Z,30.3
2023-01-23T12:12:16.000Z,30.3
2023-01-23T12:13:26.000Z,30.3
2023-01-23T12:14:36.289Z,30.3
2023-01-23T12:15:46.402Z,30.3
2023-01-23T12:16:56.509Z,30.3
2023-01-23T12:18:06.631Z,30.3
2023-01-23T12:19:15.000Z,30.3
2023-01-23T12:20:25.000Z,30.3
2023-01-23T12:21:35.989Z,30.3
2023-01-23T12:22:46.000Z,30.3
2023-01-23T12:23:56.000Z,30.3
2023-01-23T12:25:06.344Z,30.3
2023-01-23T12:26:16.000Z,30.2
2023-01-23T12:28:36.000Z,30.1
2023-01-23T12:29:46.809Z,30.1
2023-01-23T12:30:56.937Z,30.1
2023-01-23T12:32:07.042Z,29.9
2023-01-23T12:33:17.000Z,30.1
2023-01-23T12:34:26.000Z,29.9
2023-01-23T12:35:36.000Z,29.9
2023-01-23T12:36:46.000Z,29.9
2023-01-23T12:37:56.000Z,29.9
2023-01-23T12:39:06.755Z,29.9
2023-01-23T12:40:16.872Z,29.9
2023-01-23T12:41:26.000Z,29.9
2023-01-23T12:42:37.000Z,29.9
2023-01-23T12:43:47.000Z,29.8
2023-01-23T12:44:57.329Z,29.9
2023-01-23T12:46:07.445Z,29.9
2023-01-23T12:47:17.567Z,29.9
2023-01-23T12:48:27.000Z,29.9
2023-01-23T12:49:37.795Z,29.9
2023-01-23T12:50:46.000Z,29.9
2023-01-23T12:51:57.042Z,29.9
2023-01-23T12:53:07.000Z,29.9
2023-01-23T12:54:17.276Z,29.9
2023-01-23T12:55:27.000Z,29.9
2023-01-23T12:56:37.000Z,29.9
2023-01-23T12:57:47.000Z,29.9
2023-01-23T12:58:57.000Z,29.9
2023-01-23T13:00:07.000Z,29.9
2023-01-23T13:01:17.971Z,29.9
2023-01-23T13:02:28.090Z,29.9
2023-01-23T13:03:38.000Z,29.9
2023-01-23T13:04:48.000Z,29.7
2023-01-23T13:05:57.000Z,29.7
2023-01-23T13:07:07.572Z,29.9
2023-01-23T13:08:17.000Z,29.7
2023-01-23T13:09:27.000Z,29.7
2023-01-23T13:10:37.000Z,29.7
2023-01-23T13:11:48.000Z,29.7
2023-01-23T13:12:58.000Z,29.7
2023-01-23T13:14:08.000Z,29.7
2023-01-23T13:15:18.383Z,29.7
2023-01-23T13:16:28.000Z,29.7
2023-01-23T13:17:38.616Z,29.7
2023-01-23T13:18:48.000Z,29.7
2023-01-23T13:19:58.846Z,29.7
2023-01-23T13:21:07.000Z,29.7
2023-01-23T13:22:18.000Z,29.6
2023-01-23T13:23:28.000Z,29.6
2023-01-23T13:24:38.000Z,29.7
2023-01-23T13:25:48.000Z,29.6
2023-01-23T13:26:58.000Z,29.6
2023-01-23T13:28:08.686Z,29.6
2023-01-23T13:29:18.000Z,29.6
2023-01-23T13:30:28.906Z,29.6
2023-01-23T13:31:39.000Z,29.6
2023-01-23T13:32:49.000Z,29.6
2023-01-23T13:33:59.000Z,29.6
2023-01-23T13:35:09.376Z,29.6
2023-01-23T13:36:18.503Z,29.6
2023-01-23T13:37:28.000Z,29.6
2023-01-23T13:38:38.000Z,29.6
2023-01-23T13:39:48.000Z,29.6
2023-01-23T13:40:58.000Z,29.6
2023-01-23T13:42:09.000Z,29.6
2023-01-23T13:43:19.000Z,29.6
2023-01-23T13:44:29.000Z,29.6
2023-01-23T13:45:39.000Z,29.6
2023-01-23T13:46:49.000Z,29.6
2023-01-23T13:47:59.000Z,29.6
2023-01-23T13:49:09.786Z,29.6
2023-01-23T13:50:19.907Z,29.6
2023-01-23T13:51:29.000Z,29.6
2023-01-23T13:52:39.000Z,29.6
2023-01-23T13:53:49.270Z,29.6
2023-01-23T13:54:59.378Z,29.6
2023-01-23T13:56:09.500Z,29.6
2023-01-23T13:57:19.617Z,29.6
2023-01-23T13:58:29.730Z,29.6
2023-01-23T13:59:39.000Z,29.6
2023-01-23T14:00:49.963Z,29.6
2023-01-23T14:02:00.000Z,29.6
2023-01-23T14:03:10.000Z,29.6
2023-01-23T14:04:20.310Z,29.6
2023-01-23T14:05:30.000Z,29.6
2023-01-23T14:06:39.000Z,29.6
2023-01-23T14:07:49.000Z,29.6
2023-01-23T14:08:59.000Z,29.6
2023-01-23T14:10:09.000Z,29.6
2023-01-23T14:11:20.000Z,29.6
2023-01-23T14:12:30.000Z,29.6
2023-01-23T14:13:40.000Z,29.6
2023-01-23T14:14:50.000Z,29.7
2023-01-23T14:16:00.000Z,30.1
2023-01-23T14:17:10.000Z,30.3
2023-01-23T14:18:20.000Z,30.6
2023-01-23T14:19:30.000Z,30.4
2023-01-23T14:20:40.000Z,30.4
2023-01-23T14:21:50.000Z,30.4
2023-01-23T14:23:00.000Z,30.4
2023-01-23T14:24:10.000Z,30.4
2023-01-23T14:25:20.428Z,30.3
2023-01-23T14:26:30.000Z,30.3
2023-01-23T14:27:40.000Z,30.3
2023-01-23T14:28:50.000Z,30.1
2023-01-23T14:30:00.000Z,30.1
2023-01-23T14:31:11.000Z,30.1
2023-01-23T14:32:21.000Z,30.1
2023-01-23T14:33:31.243Z,30.1
2023-01-23T14:34:41.000Z,30.1
2023-01-23T14:35:51.000Z,30.1
2023-01-23T14:37:00.000Z,30.1
2023-01-23T14:38:10.730Z,30.1
2023-01-23T14:39:20.841Z,30.1
2023-01-23T14:40:30.951Z,29.9
2023-01-23T14:41:41.000Z,29.9
2023-01-23T14:42:51.188Z,29.9
2023-01-23T14:44:01.301Z,29.9
2023-01-23T14:45:11.000Z,29.9
2023-01-23T14:46:21.000Z,29.9
2023-01-23T14:47:31.000Z,29.9
2023-01-23T14:48:41.771Z,29.9
2023-01-23T14:49:51.883Z,29.9
2023-01-23T14:51:02.003Z,29.9
2023-01-23T14:52:11.000Z,29.9
2023-01-23T14:53:21.000Z,29.9
2023-01-23T14:54:31.359Z,29.9
2023-01-23T14:55:41.000Z,29.9
2023-01-23T14:56:51.000Z,29.9
2023-01-23T14:58:01.000Z,29.9
2023-01-23T14:59:11.000Z,29.9
2023-01-23T15:00:21.000Z,29.9
2023-01-23T15:01:32.000Z,29.9
2023-01-23T15:02:42.000Z,29.9
2023-01-23T15:03:52.290Z,29.9
2023-01-23T15:05:02.000Z,29.9
2023-01-23T15:06:12.000Z,29.9
2023-01-23T15:07:21.000Z,29.9
2023-01-23T15:08:31.770Z,29.9
2023-01-23T15:09:41.000Z,29.9
2023-01-23T15:10:52.003Z,29.9
2023-01-23T15:12:02.000Z,29.9
2023-01-23T15:13:12.000Z,29.9
2023-01-23T15:14:22.000Z,29.9
2023-01-23T15:15:32.000Z,29.9
2023-01-23T15:16:42.582Z,29.9
2023-01-23T15:17:52.700Z,29.9
2023-01-23T15:19:02.820Z,29.9
2023-01-23T15:20:12.000Z,29.9
2023-01-23T15:21:23.000Z,29.9
2023-01-23T15:22:32.000Z,29.9
2023-01-23T15:23:42.000Z,29.9
2023-01-23T15:24:52.414Z,29.9
2023-01-23T15:26:02.531Z,29.9
2023-01-23T15:27:12.000Z,29.7
2023-01-23T15:28:21.000Z,29.9
2023-01-23T15:29:31.901Z,29.9
2023-01-23T15:30:42.000Z,29.9
2023-01-23T15:31:52.000Z,29.9
2023-01-23T15:33:02.245Z,29.9
2023-01-23T15:34:12.000Z,29.9
2023-01-23T15:35:22.000Z,29.9
2023-01-23T15:36:32.000Z,29.9
2023-01-23T15:37:42.000Z,29.9
2023-01-23T15:38:52.000Z,29.9
2023-01-23T15:40:02.000Z,29.9
2023-01-23T15:41:13.000Z,29.9
2023-01-23T15:42:23.174Z,29.9
2023-01-23T15:43:32.000Z,29.9
2023-01-23T15:44:42.000Z,29.9
2023-01-23T15:45:52.000Z,29.9
2023-01-23T15:47:02.659Z,29.9